createdAt,value
2023-01-29T00:01:57.780Z,102209.66
2023-01-29T00:04:24.569Z,102205.34
2023-01-29T00:06:51.371Z,102189.75
2023-01-29T00:09:18.914Z,102195.75
2023-01-29T00:11:45.821Z,102193.97
2023-01-29T00:14:13.376Z,102187.97
2023-01-29T00:16:40.332Z,102183.72
2023-01-29T00:19:07.070Z,102183.72
2023-01-29T00:21:33.814Z,102182.00
2023-01-29T00:24:00.576Z,102175.84
2023-01-29T00:26:27.667Z,102164.69
2023-01-29T00:28:57.141Z,102164.69
2023-01-29T00:31:25.491Z,102154.31
2023-01-29T00:33:52.568Z,102163.00
2023-01-29T00:36:21.015Z,102165.50
2023-01-29T00:38:54.592Z,102160.19
2023-01-29T00:41:41.639Z,102164.59
2023-01-29T00:44:28.518Z,102159.44
2023-01-29T00:46:55.357Z,102165.47
2023-01-29T00:49:22.211Z,102164.72
2023-01-29T00:52:09.084Z,102162.94
2023-01-29T00:54:36.384Z,102168.88
2023-01-29T00:57:04.634Z,102169.88
2023-01-29T00:59:31.942Z,102168.97
2023-01-29T01:02:17.222Z,102168.19
2023-01-29T01:04:44.070Z,102178.53
2023-01-29T01:09:56.496Z,102171.50
2023-01-29T01:12:23.280Z,102175.94
2023-01-29T01:14:50.460Z,102169.91
2023-01-29T01:17:17.442Z,102162.13
2023-01-29T01:19:44.220Z,102167.28
2023-01-29T01:22:12.165Z,102168.16
2023-01-29T01:24:39.621Z,102161.16
2023-01-29T01:27:07.034Z,102166.41
2023-01-29T01:29:33.896Z,102172.44
2023-01-29T01:32:01.003Z,102180.22
2023-01-29T01:34:28.189Z,102181.06
2023-01-29T01:36:56.350Z,102174.13
2023-01-29T01:39:24.706Z,102173.38
2023-01-29T01:41:55.230Z,102156.06
2023-01-29T01:45:12.946Z,102163.91
2023-01-29T01:47:51.356Z,102167.38
2023-01-29T01:50:34.892Z,102165.59
2023-01-29T01:53:08.642Z,102167.38
2023-01-29T01:55:41.141Z,102157.84
2023-01-29T01:58:15.810Z,102159.56
2023-01-29T02:00:42.911Z,102152.66
2023-01-29T02:03:30.722Z,102151.75
2023-01-29T02:06:18.425Z,102156.94
2023-01-29T02:09:06.872Z,102151.78
2023-01-29T02:11:36.206Z,102148.28
2023-01-29T02:14:03.601Z,102142.28
2023-01-29T02:16:30.441Z,102143.97
2023-01-29T02:18:57.262Z,102128.44
2023-01-29T02:21:36.284Z,102137.09
2023-01-29T02:24:44.228Z,102135.38
2023-01-29T02:27:13.753Z,102129.28
2023-01-29T02:30:09.393Z,102136.25
2023-01-29T02:33:12.338Z,102135.41
2023-01-29T02:35:46.180Z,102125.88
2023-01-29T02:38:27.387Z,102132.78
2023-01-29T02:41:01.267Z,102126.75
2023-01-29T02:43:30.761Z,102119.81
2023-01-29T02:46:03.953Z,102112.03
2023-01-29T02:48:40.943Z,102118.94
2023-01-29T02:51:38.168Z,102114.66
2023-01-29T02:54:20.548Z,102113.75
2023-01-29T02:56:51.547Z,102120.69
2023-01-29T02:59:25.039Z,102106.88
2023-01-29T03:02:02.892Z,102099.03
2023-01-29T03:04:33.202Z,102089.50
2023-01-29T03:07:10.685Z,102079.94
2023-01-29T03:09:43.275Z,102079.13
2023-01-29T03:12:33.981Z,102074.81
2023-01-29T03:15:14.087Z,102062.63
2023-01-29T03:17:55.110Z,102057.50
2023-01-29T03:20:29.424Z,102054.00
2023-01-29T03:23:01.411Z,102062.63
2023-01-29T03:25:47.052Z,102063.66
2023-01-29T03:28:37.645Z,102070.56
2023-01-29T03:31:26.655Z,102065.34
2023-01-29T03:34:16.561Z,102060.16
2023-01-29T03:37:00.659Z,102043.66
2023-01-29T03:39:29.218Z,102048.69
2023-01-29T03:42:35.418Z,102049.66
2023-01-29T03:45:38.861Z,102044.44
2023-01-29T03:48:24.091Z,102054.75
2023-01-29T03:51:04.752Z,102047.91
2023-01-29T03:53:50.245Z,102040.97
2023-01-29T03:56:22.541Z,102044.53
2023-01-29T03:59:00.549Z,102035.81
2023-01-29T04:01:55.401Z,102033.19
2023-01-29T04:04:26.799Z,102029.69
2023-01-29T04:06:58.353Z,102027.19
2023-01-29T04:09:34.182Z,102024.66
2023-01-29T04:12:09.153Z,102028.22
2023-01-29T04:14:39.306Z,102021.25
2023-01-29T04:17:32.930Z,102028.75
2023-01-29T04:20:11.314Z,102024.50
2023-01-29T04:22:41.581Z,102017.66
2023-01-29T04:25:15.972Z,102027.19
2023-01-29T04:28:11.976Z,102033.38
2023-01-29T04:30:44.172Z,102025.50
2023-01-29T04:33:44.081Z,102023.78
2023-01-29T04:36:38.249Z,102022.75
2023-01-29T04:39:17.522Z,102024.66
2023-01-29T04:41:59.313Z,102028.13
2023-01-29T04:44:32.093Z,102032.25
2023-01-29T04:47:23.383Z,102039.34
2023-01-29T04:50:15.187Z,102042.00
2023-01-29T04:52:52.031Z,102052.38
2023-01-29T04:55:36.005Z,102048.00
2023-01-29T04:58:22.576Z,102033.19
2023-01-29T05:00:53.581Z,102049.78
2023-01-29T05:03:26.604Z,102035.81
2023-01-29T05:05:55.809Z,102035.09
2023-01-29T05:08:25.372Z,102022.94
2023-01-29T05:10:54.741Z,102027.19
2023-01-29T05:13:23.376Z,102025.44
2023-01-29T05:16:04.989Z,102012.44
2023-01-29T05:18:32.331Z,102013.44
2023-01-29T05:21:01.971Z,102001.13
2023-01-29T05:23:28.636Z,102013.31
2023-01-29T05:25:56.706Z,102013.47
2023-01-29T05:28:24.048Z,102010.03
2023-01-29T05:30:53.282Z,102023.00
2023-01-29T05:33:31.283Z,102015.06
2023-01-29T05:36:00.949Z,102009.88
2023-01-29T05:38:28.003Z,101999.50
2023-01-29T05:40:54.850Z,102005.38
2023-01-29T05:43:25.390Z,102013.47
2023-01-29T05:45:53.735Z,102001.31
2023-01-29T05:48:20.590Z,101996.97
2023-01-29T05:50:47.443Z,101993.53
2023-01-29T05:53:14.366Z,102011.69
2023-01-29T05:55:45.490Z,102010.88
2023-01-29T05:58:12.754Z,102011.69
2023-01-29T06:00:40.232Z,102008.09
2023-01-29T06:03:07.688Z,102022.84
2023-01-29T06:05:38.132Z,102018.53
2023-01-29T06:08:05.314Z,102010.81
2023-01-29T06:10:32.011Z,102012.66
2023-01-29T06:12:58.700Z,102001.28
2023-01-29T06:15:26.570Z,101994.41
2023-01-29T06:17:57.077Z,101980.63
2023-01-29T06:20:24.915Z,101982.38
2023-01-29T06:22:51.783Z,101981.44
2023-01-29T06:25:18.521Z,101975.44
2023-01-29T06:27:45.172Z,101980.69
2023-01-29T06:30:12.351Z,101973.72
2023-01-29T06:32:39.060Z,101969.19
2023-01-29T06:35:06.164Z,101963.13
2023-01-29T06:37:32.837Z,101948.53
2023-01-29T06:39:59.581Z,101953.72
2023-01-29T06:42:28.070Z,101952.03
2023-01-29T06:44:58.210Z,101948.66
2023-01-29T06:47:24.935Z,101949.53
2023-01-29T06:49:52.172Z,101944.31
2023-01-29T06:52:19.000Z,101940.84
2023-01-29T06:54:45.633Z,101934.81
2023-01-29T06:57:12.262Z,101931.38
2023-01-29T06:59:38.922Z,101931.25
2023-01-29T07:02:05.780Z,101933.97
2023-01-29T07:04:32.531Z,101943.53
2023-01-29T07:06:59.994Z,101940.94
2023-01-29T07:09:26.697Z,101935.72
2023-01-29T07:11:53.367Z,101935.69
2023-01-29T07:14:20.054Z,101952.09
2023-01-29T07:16:46.723Z,101956.34
2023-01-29T07:19:13.668Z,101950.34
2023-01-29T07:21:40.378Z,101943.47
2023-01-29T07:24:07.255Z,101946.06
2023-01-29T07:26:33.920Z,101940.69
2023-01-29T07:29:00.567Z,101939.16
2023-01-29T07:31:27.349Z,101936.47
2023-01-29T07:33:54.079Z,101923.47
2023-01-29T07:36:20.709Z,101913.00
2023-01-29T07:38:51.246Z,101913.06
2023-01-29T07:41:17.928Z,101913.09
2023-01-29T07:43:46.150Z,101903.69
2023-01-29T07:46:12.983Z,101904.38
2023-01-29T07:48:39.682Z,101901.09
2023-01-29T07:51:06.681Z,101904.44
2023-01-29T07:53:33.431Z,101906.22
2023-01-29T07:56:00.160Z,101908.75
2023-01-29T07:58:26.857Z,101911.41
2023-01-29T08:00:53.647Z,101908.91
2023-01-29T08:03:20.841Z,101902.75
2023-01-29T08:05:48.048Z,101913.09
2023-01-29T08:08:14.901Z,101912.25
2023-01-29T08:10:42.312Z,101904.34
2023-01-29T08:13:09.659Z,101896.75
2023-01-29T08:15:38.784Z,101892.31
2023-01-29T08:18:06.587Z,101897.63
2023-01-29T08:20:33.294Z,101901.13
2023-01-29T08:23:05.146Z,101905.44
2023-01-29T08:25:32.908Z,101901.09
2023-01-29T08:28:00.863Z,101904.53
2023-01-29T08:30:29.963Z,101894.94
2023-01-29T08:32:56.870Z,101903.59
2023-01-29T08:35:24.392Z,101904.50
2023-01-29T08:37:55.684Z,101902.69
2023-01-29T08:40:22.810Z,101898.31
2023-01-29T08:42:49.494Z,101893.22
2023-01-29T08:45:16.381Z,101895.72
2023-01-29T08:47:51.992Z,101899.28
2023-01-29T08:50:19.531Z,101897.44
2023-01-29T08:52:46.424Z,101898.28
2023-01-29T08:55:13.675Z,101899.13
2023-01-29T08:57:40.437Z,101897.63
2023-01-29T09:00:09.414Z,101895.81
2023-01-29T09:02:36.644Z,101894.91
2023-01-29T09:05:03.671Z,101889.84
2023-01-29T09:07:30.387Z,101894.09
2023-01-29T09:09:57.229Z,101909.75
2023-01-29T09:12:24.133Z,101908.88
2023-01-29T09:14:50.830Z,101900.13
2023-01-29T09:17:17.526Z,101900.09
2023-01-29T09:19:44.300Z,101895.91
2023-01-29T09:22:12.021Z,101899.44
2023-01-29T09:24:39.036Z,101888.13
2023-01-29T09:27:06.246Z,101888.06
2023-01-29T09:29:35.663Z,101883.69
2023-01-29T09:32:04.528Z,101887.16
2023-01-29T09:34:31.277Z,101885.44
2023-01-29T09:36:58.076Z,101879.50
2023-01-29T09:39:24.770Z,101875.78
2023-01-29T09:42:21.823Z,101874.94
2023-01-29T09:44:57.189Z,101863.78
2023-01-29T09:47:26.751Z,101867.13
2023-01-29T09:49:57.966Z,101859.38
2023-01-29T09:52:32.736Z,101848.09
2023-01-29T09:54:59.446Z,101838.59
2023-01-29T09:57:35.961Z,101835.94
2023-01-29T10:00:02.493Z,101829.94
2023-01-29T10:02:50.919Z,101830.00
2023-01-29T10:05:31.729Z,101822.13
2023-01-29T10:08:21.055Z,101823.78
2023-01-29T10:10:58.487Z,101825.50
2023-01-29T10:13:45.154Z,101821.06
2023-01-29T10:16:11.762Z,101810.06
2023-01-29T10:18:53.750Z,101803.06
2023-01-29T10:21:27.037Z,101803.16
2023-01-29T10:24:17.389Z,101789.94
2023-01-29T10:26:44.131Z,101789.03
2023-01-29T10:29:18.387Z,101785.69
2023-01-29T10:31:49.183Z,101774.41
2023-01-29T10:34:35.538Z,101770.78
2023-01-29T10:37:15.537Z,101770.16
2023-01-29T10:39:42.355Z,101772.81
2023-01-29T10:42:21.114Z,101769.34
2023-01-29T10:44:56.980Z,101779.69
2023-01-29T10:47:32.947Z,101777.00
2023-01-29T10:50:13.979Z,101769.72
2023-01-29T10:53:05.539Z,101772.81
2023-01-29T10:55:35.301Z,101761.38
2023-01-29T10:58:24.987Z,101757.94
2023-01-29T11:00:52.616Z,101749.28
2023-01-29T11:03:28.789Z,101753.22
2023-01-29T11:06:29.554Z,101749.00
2023-01-29T11:09:28.830Z,101744.16
2023-01-29T11:12:03.013Z,101741.72
2023-01-29T11:14:38.868Z,101740.84
2023-01-29T11:17:05.644Z,101738.19
2023-01-29T11:19:43.545Z,101742.28
2023-01-29T11:22:22.646Z,101738.94
2023-01-29T11:25:19.806Z,101736.50
2023-01-29T11:27:58.028Z,101733.09
2023-01-29T11:30:34.301Z,101731.28
2023-01-29T11:33:18.982Z,101713.66
2023-01-29T11:35:45.982Z,101714.94
2023-01-29T11:38:16.027Z,101715.81
2023-01-29T11:40:43.398Z,101713.22
2023-01-29T11:43:26.509Z,101714.72
2023-01-29T11:46:05.343Z,101702.63
2023-01-29T11:48:40.840Z,101697.16
2023-01-29T11:51:10.315Z,101693.91
2023-01-29T11:53:43.827Z,101694.84
2023-01-29T11:56:38.132Z,101686.84
2023-01-29T11:59:05.497Z,101680.28
2023-01-29T12:01:42.244Z,101672.28
2023-01-29T12:04:27.011Z,101664.44
2023-01-29T12:06:54.739Z,101665.13
2023-01-29T12:09:28.271Z,101665.13
2023-01-29T12:11:55.871Z,101651.16
2023-01-29T12:14:25.111Z,101651.13
2023-01-29T12:16:55.898Z,101649.72
2023-01-29T12:19:36.571Z,101636.91
2023-01-29T12:22:17.499Z,101643.66
2023-01-29T12:24:54.586Z,101635.16
2023-01-29T12:27:46.298Z,101634.00
2023-01-29T12:30:20.238Z,101623.31
2023-01-29T12:32:59.646Z,101618.09
2023-01-29T12:35:31.073Z,101607.88
2023-01-29T12:38:03.565Z,101614.91
2023-01-29T12:40:44.135Z,101608.06
2023-01-29T12:43:17.147Z,101594.03
2023-01-29T12:45:49.559Z,101590.78
2023-01-29T12:48:24.363Z,101589.84
2023-01-29T12:50:53.974Z,101592.19
2023-01-29T12:53:28.505Z,101590.63
2023-01-29T12:56:19.339Z,101582.66
2023-01-29T12:58:50.811Z,101578.13
2023-01-29T13:01:28.626Z,101573.72
2023-01-29T13:03:58.276Z,101572.00
2023-01-29T13:06:41.553Z,101561.53
2023-01-29T13:09:15.541Z,101561.16
2023-01-29T13:11:52.125Z,101563.69
2023-01-29T13:14:24.659Z,101561.00
2023-01-29T13:16:59.344Z,101545.56
2023-01-29T13:19:31.627Z,101543.84
2023-01-29T13:22:02.113Z,101540.81
2023-01-29T13:24:47.903Z,101539.66
2023-01-29T13:27:26.401Z,101538.69
2023-01-29T13:29:54.755Z,101529.16
2023-01-29T13:32:30.633Z,101528.56
2023-01-29T13:35:04.743Z,101529.66
2023-01-29T13:37:41.141Z,101533.50
2023-01-29T13:40:08.875Z,101524.69
2023-01-29T13:42:42.497Z,101508.28
2023-01-29T13:45:20.680Z,101509.00
2023-01-29T13:47:49.887Z,101515.72
2023-01-29T13:50:42.583Z,101506.47
2023-01-29T13:53:29.095Z,101507.13
2023-01-29T13:55:55.774Z,101501.25
2023-01-29T13:58:31.326Z,101496.72
2023-01-29T14:01:01.722Z,101501.81
2023-01-29T14:03:56.094Z,101490.31
2023-01-29T14:06:40.419Z,101487.97
2023-01-29T14:09:58.873Z,101481.66
2023-01-29T14:12:25.548Z,101479.72
2023-01-29T14:14:55.252Z,101474.66
2023-01-29T14:17:24.574Z,101469.50
2023-01-29T14:19:53.484Z,101458.13
2023-01-29T14:22:23.218Z,101447.09
2023-01-29T14:24:55.706Z,101452.94
2023-01-29T14:27:27.930Z,101441.16
2023-01-29T14:30:06.452Z,101441.09
2023-01-29T14:32:33.788Z,101434.38
2023-01-29T14:35:01.675Z,101429.69
2023-01-29T14:37:34.272Z,101432.53
2023-01-29T14:40:20.803Z,101426.34
2023-01-29T14:42:56.690Z,101433.25
2023-01-29T14:45:38.586Z,101432.91
2023-01-29T14:48:36.739Z,101426.44
2023-01-29T14:51:09.741Z,101423.19
2023-01-29T14:54:01.760Z,101423.03
2023-01-29T14:56:44.146Z,101410.84
2023-01-29T14:59:19.698Z,101414.22
2023-01-29T15:01:58.369Z,101419.00
2023-01-29T15:04:35.239Z,101398.84
2023-01-29T15:07:11.023Z,101402.81
2023-01-29T15:09:43.191Z,101399.72
2023-01-29T15:12:18.787Z,101400.63
2023-01-29T15:15:21.396Z,101406.41
2023-01-29T15:18:05.569Z,101407.75
2023-01-29T15:20:36.230Z,101401.34
2023-01-29T15:23:03.832Z,101402.97
2023-01-29T15:25:49.775Z,101402.41
2023-01-29T15:28:16.523Z,101395.00
2023-01-29T15:30:45.054Z,101388.56
2023-01-29T15:33:14.040Z,101381.41
2023-01-29T15:35:42.275Z,101380.75
2023-01-29T15:38:24.097Z,101366.63
2023-01-29T15:41:02.243Z,101367.31
2023-01-29T15:43:37.525Z,101366.41
2023-01-29T15:46:30.563Z,101357.06
2023-01-29T15:49:01.480Z,101348.75
2023-01-29T15:51:29.048Z,101347.19
2023-01-29T15:53:55.719Z,101347.56
2023-01-29T15:56:29.766Z,101339.25
2023-01-29T15:59:00.803Z,101339.03
2023-01-29T16:01:28.346Z,101334.34
2023-01-29T16:03:59.301Z,101329.63
2023-01-29T16:06:26.922Z,101327.28
2023-01-29T16:08:55.382Z,101321.09
2023-01-29T16:11:22.405Z,101315.50
2023-01-29T16:13:50.718Z,101317.72
2023-01-29T16:16:28.247Z,101327.19
2023-01-29T16:19:00.495Z,101320.59
2023-01-29T16:21:33.176Z,101316.78
2023-01-29T16:24:03.152Z,101320.13
2023-01-29T16:26:36.811Z,101312.81
2023-01-29T16:29:06.715Z,101318.13
2023-01-29T16:31:35.583Z,101322.34
2023-01-29T16:34:08.780Z,101309.34
2023-01-29T16:36:35.862Z,101315.22
2023-01-29T16:39:06.652Z,101307.03
2023-01-29T16:41:36.369Z,101293.34
2023-01-29T16:44:35.183Z,101307.59
2023-01-29T16:47:13.339Z,101296.75
2023-01-29T16:49:44.197Z,101293.53
2023-01-29T16:52:22.824Z,101291.59
2023-01-29T16:54:49.553Z,101284.88
2023-01-29T16:57:20.017Z,101282.47
2023-01-29T16:59:47.183Z,101282.28
2023-01-29T17:02:33.498Z,101271.84
2023-01-29T17:05:04.257Z,101270.00
2023-01-29T17:07:32.898Z,101264.81
2023-01-29T17:10:02.554Z,101259.56
2023-01-29T17:12:31.328Z,101253.84
2023-01-29T17:15:05.180Z,101246.41
2023-01-29T17:17:34.623Z,101247.50
2023-01-29T17:20:15.820Z,101245.81
2023-01-29T17:22:44.803Z,101235.84
2023-01-29T17:25:14.958Z,101236.28
2023-01-29T17:27:44.237Z,101234.78
2023-01-29T17:30:22.436Z,101219.41
2023-01-29T17:32:49.255Z,101222.63
2023-01-29T17:35:17.580Z,101217.13
2023-01-29T17:37:44.648Z,101217.97
2023-01-29T17:40:29.704Z,101221.78
2023-01-29T17:42:56.366Z,101220.25
2023-01-29T17:45:23.167Z,101210.00
2023-01-29T17:47:49.832Z,101212.47
2023-01-29T17:50:26.358Z,101204.78
2023-01-29T17:52:53.870Z,101206.75
2023-01-29T17:55:21.153Z,101189.81
2023-01-29T17:57:47.982Z,101193.41
2023-01-29T18:00:24.257Z,101174.03
2023-01-29T18:02:51.703Z,101179.47
2023-01-29T18:05:19.373Z,101176.66
2023-01-29T18:07:47.760Z,101177.91
2023-01-29T18:10:19.575Z,101175.69
2023-01-29T18:12:46.414Z,101168.81
2023-01-29T18:15:13.937Z,101160.38
2023-01-29T18:17:41.190Z,101155.56
2023-01-29T18:20:25.825Z,101148.59
2023-01-29T18:22:53.240Z,101148.16
2023-01-29T18:25:20.481Z,101137.41
2023-01-29T18:27:47.568Z,101117.97
2023-01-29T18:30:14.654Z,101122.81
2023-01-29T18:32:41.376Z,101117.63
2023-01-29T18:35:08.678Z,101117.84
2023-01-29T18:37:36.300Z,101116.66
2023-01-29T18:40:03.436Z,101114.84
2023-01-29T18:42:32.380Z,101107.88
2023-01-29T18:44:59.367Z,101094.75
2023-01-29T18:47:26.025Z,101090.75
2023-01-29T18:49:52.842Z,101094.19
2023-01-29T18:52:19.487Z,101085.16
2023-01-29T18:54:46.116Z,101083.75
2023-01-29T18:57:14.773Z,101088.03
2023-01-29T18:59:59.605Z,101079.38
2023-01-29T19:02:26.649Z,101067.34
2023-01-29T19:04:53.487Z,101065.31
2023-01-29T19:07:20.249Z,101054.28
2023-01-29T19:09:47.020Z,101052.72
2023-01-29T19:12:14.163Z,101041.19
2023-01-29T19:14:40.963Z,101037.22
2023-01-29T19:17:07.925Z,101037.91
2023-01-29T19:19:34.960Z,101039.44
2023-01-29T19:22:02.265Z,101039.41
2023-01-29T19:24:29.009Z,101024.38
2023-01-29T19:26:55.780Z,101027.66
2023-01-29T19:29:22.743Z,101029.00
2023-01-29T19:31:49.494Z,101020.09
2023-01-29T19:34:16.223Z,101018.13
2023-01-29T19:36:43.193Z,101010.53
2023-01-29T19:39:11.288Z,101006.84
2023-01-29T19:41:37.976Z,100997.28
2023-01-29T19:44:04.723Z,100986.91
2023-01-29T19:46:31.501Z,100987.22
2023-01-29T19:48:58.865Z,100984.69
2023-01-29T19:51:28.161Z,100986.25
2023-01-29T19:53:55.751Z,100976.09
2023-01-29T19:56:22.439Z,100984.06
2023-01-29T19:58:49.143Z,100981.03
2023-01-29T20:01:18.461Z,100975.94
2023-01-29T20:03:47.246Z,100975.16
2023-01-29T20:06:16.556Z,100958.06
2023-01-29T20:08:45.477Z,100969.56
2023-01-29T20:11:16.814Z,100969.00
2023-01-29T20:13:43.839Z,100957.72
2023-01-29T20:16:10.538Z,100961.19
2023-01-29T20:18:37.251Z,100954.88
2023-01-29T20:21:10.098Z,100965.56
2023-01-29T20:23:38.721Z,100945.81
2023-01-29T20:26:12.386Z,100945.84
2023-01-29T20:28:39.789Z,100941.66
2023-01-29T20:31:08.002Z,100926.63
2023-01-29T20:33:36.661Z,100935.72
2023-01-29T20:36:07.293Z,100926.34
2023-01-29T20:38:34.755Z,100921.38
2023-01-29T20:41:04.220Z,100913.69
2023-01-29T20:43:31.080Z,100915.34
2023-01-29T20:45:58.646Z,100905.84
2023-01-29T20:48:26.063Z,100899.91
2023-01-29T20:50:53.338Z,100898.91
2023-01-29T20:53:20.019Z,100890.66
2023-01-29T20:55:46.822Z,100900.63
2023-01-29T20:58:13.670Z,100899.84
2023-01-29T21:00:40.490Z,100892.47
2023-01-29T21:03:07.140Z,100898.78
2023-01-29T21:05:33.824Z,100884.94
2023-01-29T21:08:00.452Z,100870.06
2023-01-29T21:10:27.096Z,100851.91
2023-01-29T21:12:54.712Z,100855.41
2023-01-29T21:15:21.679Z,100852.88
2023-01-29T21:17:48.440Z,100853.81
2023-01-29T21:20:15.518Z,100836.84
2023-01-29T21:22:43.947Z,100855.41
2023-01-29T21:25:11.293Z,100837.28
2023-01-29T21:27:39.198Z,100833.09
2023-01-29T21:30:06.423Z,100832.22
2023-01-29T21:32:33.155Z,100818.66
2023-01-29T21:34:59.877Z,100816.78
2023-01-29T21:37:26.529Z,100805.97
2023-01-29T21:39:53.206Z,100791.91
2023-01-29T21:42:38.684Z,100802.59
2023-01-29T21:45:05.909Z,100796.78
2023-01-29T21:47:32.581Z,100783.84
2023-01-29T21:49:59.274Z,100798.09
2023-01-29T21:52:26.040Z,100781.84
2023-01-29T21:54:53.745Z,100797.03
2023-01-29T21:57:20.408Z,100803.75
2023-01-29T21:59:52.871Z,100792.44
2023-01-29T22:02:22.085Z,100789.66
2023-01-29T22:04:48.886Z,100790.13
2023-01-29T22:07:16.473Z,100784.09
2023-01-29T22:09:43.373Z,100771.75
2023-01-29T22:12:10.268Z,100766.50
2023-01-29T22:14:44.206Z,100752.19
2023-01-29T22:17:10.943Z,100751.38
2023-01-29T22:19:37.683Z,100736.28
2023-01-29T22:22:04.378Z,100737.22
2023-01-29T22:24:31.089Z,100726.06
2023-01-29T22:26:57.776Z,100716.41
2023-01-29T22:29:24.433Z,100721.91
2023-01-29T22:31:51.074Z,100716.00
2023-01-29T22:34:17.719Z,100704.34
2023-01-29T22:36:44.373Z,100707.72
2023-01-29T22:39:11.163Z,100696.66
2023-01-29T22:41:37.904Z,100681.06
2023-01-29T22:44:04.919Z,100682.91
2023-01-29T22:46:31.700Z,100696.72
2023-01-29T22:48:58.476Z,100682.53
2023-01-29T22:51:25.229Z,100673.53
2023-01-29T22:53:54.003Z,100677.81
2023-01-29T22:56:25.311Z,100672.09
2023-01-29T22:58:57.501Z,100658.03
2023-01-29T23:01:27.589Z,100637.66
2023-01-29T23:03:54.311Z,100636.63
2023-01-29T23:06:24.470Z,100626.47
2023-01-29T23:08:51.541Z,100612.78
2023-01-29T23:11:20.930Z,100605.84
2023-01-29T23:13:48.887Z,100606.66
2023-01-29T23:16:17.252Z,100590.72
2023-01-29T23:18:45.159Z,100566.47
2023-01-29T23:21:12.546Z,100562.31
2023-01-29T23:31:28.352Z,100536.78
2023-01-29T23:33:55.402Z,100534.16
2023-01-29T23:36:22.089Z,100525.16
2023-01-29T23:38:48.768Z,100525.38
2023-01-29T23:41:15.464Z,100522.22
2023-01-29T23:43:44.043Z,100498.53
2023-01-29T23:46:10.673Z,100508.03
2023-01-29T23:48:37.344Z,100491.28
2023-01-29T23:51:04.155Z,100496.69
2023-01-29T23:53:30.907Z,100490.88
2023-01-29T23:56:05.765Z,100509.03
2023-01-29T23:58:33.259Z,100508.75
